羽田本店の常連様ですが。。。@愛媛

LUXURY FLIGHT

03-6423-7371

羽田本店:東京都大田区羽田5-11-1
営業時間:10:00~20:00
定休日:毎週 月曜日
セントレア店:愛知県常滑市セントレア1-1
営業時間:10:00~20:00 年中無休

lv

羽田本店の常連様ですが。。。@愛媛

STAFF BLOG

2019/06/13 羽田本店の常連様ですが。。。@愛媛

こんちゃわーーー

 

梅雨の合間の晴れ

 

全国の奥様は久々の洗濯日和に花咲かせているのではないでしょうか

 

そんなことないか・・・

 

そもそも全国的に晴れてるとは限りませんし、全国の天気は把握しておりませんでした〜〜

 

その、梅雨の合間のセントレアのMETARは・・・

RJGG 130130Z 23004KT 190V260 9999 FEW020 22/16 Q1012 NOSIG

 

良い感じですね!!

 

さて、

 

本日ご紹介させて頂くお客様は、古くからの羽田本店での常連様で、なんと、愛媛からお越しいただいております

Nさまが、今回はセントレアに遊びに来てくれましたーーー

 

ご来店いただくだけで、嬉しい状況ではありますが、ご遠方からのお客様には

 

嬉しさが倍増することは言うまでもありません。

 

フライトの内容はタッチん!!

 

img_3105

 

私的には、B3やB4よりもB8の方が圧倒的に操縦しやすい気がするのですが、(あくまでも弊社シミュレータでの比較です。

実機の操縦特性を記しているものではありません)

 

 

N様は「B3の方が操縦しやすいなーーー」と言っておりました。

 

個人差がありますからね〜〜

 

考えてみれば、737や747とは飛行時間が全然全く違いますからね〜〜

 

73や74の方が操縦に慣れてるっちゅうーことでしょう

 

img_31055

 

73や74では3度のパスをきっちりできるお方なのに、78では

 

少々高めに・・・

 

しかしNさま!!じぇんじぇ〜ん問題ありませんよーー

 

シミュレーターですから笑

 

ライセンスがないのにってことを考えれば上等すぎますよね

 

次回は羽田での特訓!!

 

ギアラップ中○が、首をナガーーくしておまちしておりまーーす!!

 

 

 

いつも、ご遠方からのご来店、誠に本当にガチで本格的に限りなく全てにおきましてありがとうございます!!!!!!

 

 

「感謝」

 

 

 

 

 

TOP